createdAt,value
2022-09-28T00:01:20.807Z,35.53
2022-09-28T00:03:49.891Z,34.58
2022-09-28T00:06:19.789Z,37.67
2022-09-28T00:08:47.096Z,35.72
2022-09-28T00:11:15.443Z,32.83
2022-09-28T00:13:43.843Z,30.33
2022-09-28T00:16:16.894Z,32.75
2022-09-28T00:18:44.101Z,29.05
2022-09-28T00:21:19.796Z,27.17
2022-09-28T00:24:04.985Z,29.00
2022-09-28T00:26:33.486Z,24.85
2022-09-28T00:29:02.630Z,25.95
2022-09-28T00:31:32.978Z,31.48
2022-09-28T00:34:01.290Z,33.10
2022-09-28T00:36:29.519Z,32.47
2022-09-28T00:38:57.719Z,29.15
2022-09-28T00:41:28.355Z,35.53
2022-09-28T00:44:27.029Z,33.55
2022-09-28T00:46:58.772Z,32.78
2022-09-28T00:49:48.468Z,35.25
2022-09-28T00:52:30.802Z,32.45
2022-09-28T00:55:02.315Z,30.52
2022-09-28T00:57:29.714Z,29.65
2022-09-28T00:59:56.780Z,29.95
2022-09-28T01:02:23.616Z,33.05
2022-09-28T01:04:52.179Z,28.10
2022-09-28T01:07:19.337Z,25.10
2022-09-28T01:09:46.517Z,31.13
2022-09-28T01:12:13.563Z,28.17
2022-09-28T01:14:41.249Z,29.75
2022-09-28T01:17:38.324Z,31.15
2022-09-28T01:20:05.919Z,30.00
2022-09-28T01:22:50.435Z,29.02
2022-09-28T01:25:23.620Z,28.40
2022-09-28T01:28:04.481Z,32.72
2022-09-28T01:30:39.330Z,27.08
2022-09-28T01:33:12.709Z,28.50
2022-09-28T01:35:52.587Z,29.55
2022-09-28T01:38:43.391Z,22.55
2022-09-28T01:41:11.443Z,21.30
2022-09-28T01:43:42.777Z,21.13
2022-09-28T01:46:17.928Z,19.98
2022-09-28T01:48:58.584Z,17.13
2022-09-28T01:51:35.961Z,19.23
2022-09-28T01:54:11.327Z,26.10
2022-09-28T01:56:53.020Z,26.73
2022-09-28T01:59:26.340Z,27.55
2022-09-28T02:02:02.035Z,27.50
2022-09-28T02:04:39.467Z,31.60
2022-09-28T02:07:27.737Z,32.22
2022-09-28T02:10:05.817Z,33.33
2022-09-28T02:12:40.304Z,31.80
2022-09-28T02:15:17.030Z,37.20
2022-09-28T02:17:44.466Z,37.70
2022-09-28T02:20:11.460Z,39.10
2022-09-28T02:22:49.749Z,37.65
2022-09-28T02:25:25.492Z,42.10
2022-09-28T02:28:04.807Z,39.85
2022-09-28T02:30:35.456Z,36.65
2022-09-28T02:33:19.986Z,35.72
2022-09-28T02:35:47.459Z,39.45
2022-09-28T02:38:15.105Z,36.47
2022-09-28T02:40:48.627Z,40.33
2022-09-28T02:43:33.123Z,44.33
2022-09-28T02:46:28.770Z,37.67
2022-09-28T02:49:25.806Z,39.63
2022-09-28T02:52:05.585Z,40.65
2022-09-28T02:54:56.610Z,40.15
2022-09-28T02:57:51.567Z,43.95
2022-09-28T03:00:21.192Z,46.55
2022-09-28T03:03:12.588Z,48.90
2022-09-28T03:05:50.339Z,42.77
2022-09-28T03:08:25.025Z,45.40
2022-09-28T03:11:00.863Z,42.42
2022-09-28T03:13:28.728Z,40.97
2022-09-28T03:16:09.506Z,40.67
2022-09-28T03:18:36.292Z,43.17
2022-09-28T03:21:05.175Z,44.28
2022-09-28T03:23:32.266Z,45.90
2022-09-28T03:25:59.542Z,43.50
2022-09-28T03:28:27.032Z,40.35
2022-09-28T03:30:54.428Z,41.33
2022-09-28T03:33:21.386Z,43.88
2022-09-28T03:35:51.881Z,43.13
2022-09-28T03:38:19.265Z,41.33
2022-09-28T03:40:57.170Z,44.72
2022-09-28T03:43:25.312Z,41.75
2022-09-28T03:45:53.999Z,42.50
2022-09-28T03:48:31.252Z,45.67
2022-09-28T03:51:01.698Z,44.70
2022-09-28T03:53:29.727Z,44.80
2022-09-28T03:56:01.933Z,44.42
2022-09-28T03:58:28.694Z,41.08
2022-09-28T04:00:55.593Z,43.28
2022-09-28T04:03:22.395Z,50.33
2022-09-28T04:05:53.470Z,43.17
2022-09-28T04:08:20.384Z,49.77
2022-09-28T04:10:47.272Z,41.83
2022-09-28T04:13:14.313Z,46.58
2022-09-28T04:15:41.030Z,46.30
2022-09-28T04:18:11.723Z,41.95
2022-09-28T04:20:41.074Z,47.90
2022-09-28T04:23:07.873Z,41.38
2022-09-28T04:25:34.609Z,44.88
2022-09-28T04:28:20.266Z,43.53
2022-09-28T04:30:47.989Z,41.28
2022-09-28T04:33:14.740Z,42.47
2022-09-28T04:35:41.681Z,42.47
2022-09-28T04:38:08.404Z,42.20
2022-09-28T04:40:35.243Z,40.83
2022-09-28T04:43:02.030Z,42.03
2022-09-28T04:45:28.933Z,43.97
2022-09-28T04:47:55.745Z,43.72
2022-09-28T04:50:22.682Z,47.58
2022-09-28T04:52:49.369Z,45.17
2022-09-28T04:55:16.956Z,46.22
2022-09-28T04:57:43.721Z,44.88
2022-09-28T05:00:11.073Z,38.92
2022-09-28T05:02:37.916Z,46.53
2022-09-28T05:05:05.079Z,41.63
2022-09-28T05:07:31.874Z,43.90
2022-09-28T05:09:58.621Z,43.35
2022-09-28T05:12:25.328Z,39.28
2022-09-28T05:14:52.079Z,37.65
2022-09-28T05:17:18.810Z,37.42
2022-09-28T05:19:45.546Z,37.40
2022-09-28T05:22:14.812Z,33.42
2022-09-28T05:24:41.832Z,31.95
2022-09-28T05:27:08.675Z,36.35
2022-09-28T05:29:35.441Z,33.65
2022-09-28T05:32:02.469Z,39.20
2022-09-28T05:34:29.382Z,39.03
2022-09-28T05:36:56.163Z,34.03
2022-09-28T05:39:22.943Z,28.95
2022-09-28T05:41:49.711Z,27.40
2022-09-28T05:44:16.581Z,31.20
2022-09-28T05:46:43.488Z,29.90
2022-09-28T05:49:10.304Z,28.02
2022-09-28T05:51:36.995Z,27.85
2022-09-28T05:54:06.114Z,30.17
2022-09-28T05:56:33.385Z,30.25
2022-09-28T05:59:00.401Z,31.90
2022-09-28T06:01:27.352Z,32.42
2022-09-28T06:03:54.218Z,27.88
2022-09-28T06:06:21.101Z,34.42
2022-09-28T06:08:48.592Z,31.48
2022-09-28T06:11:15.419Z,32.00
2022-09-28T06:13:42.242Z,29.85
2022-09-28T06:16:14.321Z,29.38
2022-09-28T06:18:41.537Z,27.55
2022-09-28T06:21:10.835Z,27.77
2022-09-28T06:23:39.973Z,25.88
2022-09-28T06:26:07.356Z,27.70
2022-09-28T06:28:34.117Z,23.48
2022-09-28T06:31:01.260Z,23.67
2022-09-28T06:33:28.161Z,25.10
2022-09-28T06:35:54.923Z,25.95
2022-09-28T06:38:21.901Z,26.85
2022-09-28T06:40:48.651Z,32.22
2022-09-28T06:43:15.717Z,35.47
2022-09-28T06:45:43.608Z,32.47
2022-09-28T06:48:11.378Z,33.33
2022-09-28T06:50:40.732Z,39.63
2022-09-28T06:53:10.460Z,41.60
2022-09-28T06:55:41.647Z,32.13
2022-09-28T06:58:13.419Z,39.85
2022-09-28T07:00:41.599Z,41.65
2022-09-28T07:03:12.381Z,36.58
2022-09-28T07:05:43.065Z,34.78
2022-09-28T07:08:09.838Z,47.55
2022-09-28T07:10:40.874Z,34.38
2022-09-28T07:13:10.712Z,34.00
2022-09-28T07:15:43.941Z,39.50
2022-09-28T07:18:11.887Z,38.83
2022-09-28T07:20:50.323Z,35.38
2022-09-28T07:23:20.119Z,37.83
2022-09-28T07:25:50.211Z,38.67
2022-09-28T07:28:17.442Z,35.33
2022-09-28T07:30:44.781Z,37.70
2022-09-28T07:33:16.731Z,37.15
2022-09-28T07:35:55.180Z,36.65
2022-09-28T07:38:22.301Z,33.28
2022-09-28T07:41:07.966Z,34.17
2022-09-28T07:43:35.390Z,36.22
2022-09-28T07:46:02.301Z,30.02
2022-09-28T07:48:37.811Z,28.83
2022-09-28T07:51:06.035Z,30.02
2022-09-28T07:53:33.255Z,30.60
2022-09-28T07:56:06.422Z,34.10
2022-09-28T07:58:38.481Z,33.38
2022-09-28T08:01:08.351Z,29.38
2022-09-28T08:03:35.485Z,29.77
2022-09-28T08:06:05.952Z,31.30
2022-09-28T08:08:34.366Z,46.58
2022-09-28T08:11:01.341Z,32.88
2022-09-28T08:13:28.681Z,29.05
2022-09-28T08:15:55.441Z,30.60
2022-09-28T08:18:23.417Z,32.35
2022-09-28T08:21:11.733Z,32.70
2022-09-28T08:23:38.608Z,31.40
2022-09-28T08:26:06.655Z,30.55
2022-09-28T08:28:34.886Z,28.65
2022-09-28T08:31:01.976Z,29.08
2022-09-28T08:33:29.353Z,28.40
2022-09-28T08:36:00.964Z,26.70
2022-09-28T08:38:29.572Z,26.60
2022-09-28T08:40:59.400Z,25.25
2022-09-28T08:43:49.850Z,29.35
2022-09-28T08:46:22.703Z,24.80
2022-09-28T08:52:20.630Z,21.23
2022-09-28T08:55:02.624Z,20.88
2022-09-28T08:58:07.223Z,22.98
2022-09-28T09:00:42.296Z,18.23
2022-09-28T09:03:15.145Z,18.02
2022-09-28T09:05:52.404Z,18.02
2022-09-28T09:08:39.544Z,16.60
2022-09-28T09:11:25.461Z,17.48
2022-09-28T09:13:58.750Z,17.67
2022-09-28T09:16:34.433Z,15.52
2022-09-28T09:19:21.292Z,13.30
2022-09-28T09:22:10.023Z,13.25
2022-09-28T09:25:01.753Z,16.27
2022-09-28T09:27:41.720Z,17.92
2022-09-28T09:30:18.352Z,9.32
2022-09-28T09:33:24.748Z,10.43
2022-09-28T09:36:04.496Z,11.07
2022-09-28T09:38:31.313Z,12.02
2022-09-28T09:41:23.214Z,12.45
2022-09-28T09:46:39.946Z,11.10
2022-09-28T09:49:12.813Z,7.00
2022-09-28T09:51:48.513Z,58.22
2022-09-28T09:54:28.604Z,8.23
2022-09-28T09:57:15.891Z,8.07
2022-09-28T09:59:44.603Z,12.65
2022-09-28T10:02:32.882Z,8.18
2022-09-28T10:05:11.950Z,5.72
2022-09-28T10:07:52.329Z,6.65
2022-09-28T10:10:38.939Z,6.45
2022-09-28T10:13:05.674Z,3.75
2022-09-28T10:15:35.341Z,5.57
2022-09-28T10:18:10.374Z,5.15
2022-09-28T10:20:43.578Z,7.57
2022-09-28T10:23:22.735Z,3.75
2022-09-28T10:25:52.253Z,5.78
2022-09-28T10:28:27.899Z,4.05
2022-09-28T10:30:54.996Z,6.15
2022-09-28T10:33:35.348Z,5.18
2022-09-28T10:36:06.829Z,4.97
2022-09-28T10:38:34.201Z,3.30
2022-09-28T10:41:10.295Z,5.25
2022-09-28T10:44:07.661Z,5.68
2022-09-28T10:46:36.643Z,3.58
2022-09-28T10:49:17.967Z,5.72
2022-09-28T10:51:53.307Z,4.35
2022-09-28T10:54:23.986Z,5.03
2022-09-28T10:56:52.905Z,3.80
2022-09-28T10:59:29.604Z,4.82
2022-09-28T11:02:04.473Z,8.38
2022-09-28T11:04:40.566Z,4.00
2022-09-28T11:07:30.469Z,3.80
2022-09-28T11:09:58.913Z,2.85
2022-09-28T11:12:37.920Z,4.60
2022-09-28T11:15:07.482Z,5.43
2022-09-28T11:17:40.393Z,3.85
2022-09-28T11:20:27.974Z,3.20
2022-09-28T11:23:15.670Z,5.97
2022-09-28T11:25:42.803Z,4.07
2022-09-28T11:28:20.495Z,5.20
2022-09-28T11:30:51.805Z,6.32
2022-09-28T11:33:35.196Z,5.85
2022-09-28T11:36:08.790Z,3.25
2022-09-28T11:39:02.774Z,4.15
2022-09-28T11:42:00.323Z,4.70
2022-09-28T11:44:39.568Z,3.22
2022-09-28T11:47:41.463Z,2.33
2022-09-28T11:50:31.357Z,3.17
2022-09-28T11:52:59.109Z,2.78
2022-09-28T11:55:43.859Z,1.50
2022-09-28T11:58:31.568Z,3.67
2022-09-28T12:01:27.163Z,4.35
2022-09-28T12:04:34.216Z,2.03
2022-09-28T12:07:19.183Z,4.85
2022-09-28T12:09:50.438Z,3.95
2022-09-28T12:12:38.270Z,4.35
2022-09-28T12:15:12.954Z,4.75
2022-09-28T12:17:54.350Z,2.75
2022-09-28T12:20:39.040Z,3.33
2022-09-28T12:23:14.160Z,4.20
2022-09-28T12:25:51.735Z,3.50
2022-09-28T12:28:39.831Z,5.93
2022-09-28T12:31:28.901Z,4.20
2022-09-28T12:33:55.819Z,6.82
2022-09-28T12:36:53.091Z,4.43
2022-09-28T12:39:56.574Z,2.92
2022-09-28T12:42:47.531Z,4.20
2022-09-28T12:45:59.777Z,2.40
2022-09-28T12:48:38.632Z,3.05
2022-09-28T12:51:30.314Z,2.35
2022-09-28T12:54:24.861Z,2.20
2022-09-28T12:57:00.437Z,5.57
2022-09-28T12:59:41.737Z,5.18
2022-09-28T13:02:34.543Z,5.30
2022-09-28T13:05:19.551Z,4.95
2022-09-28T13:07:55.634Z,3.05
2022-09-28T13:10:34.095Z,4.00
2022-09-28T13:13:22.107Z,2.33
2022-09-28T13:15:56.372Z,4.47
2022-09-28T13:18:33.683Z,3.00
2022-09-28T13:21:29.928Z,5.03
2022-09-28T13:24:14.511Z,4.80
2022-09-28T13:26:48.581Z,6.30
2022-09-28T13:29:19.054Z,4.10
2022-09-28T13:32:05.481Z,4.40
2022-09-28T13:34:35.315Z,8.25
2022-09-28T13:37:16.755Z,5.88
2022-09-28T13:39:52.900Z,8.77
2022-09-28T13:42:25.798Z,6.22
2022-09-28T13:45:09.491Z,4.43
2022-09-28T13:47:54.231Z,5.10
2022-09-28T13:50:48.680Z,4.30
2022-09-28T13:53:37.134Z,5.88
2022-09-28T13:56:21.798Z,7.15
2022-09-28T13:59:00.924Z,8.80
2022-09-28T14:01:35.513Z,3.05
2022-09-28T14:04:18.529Z,4.68
2022-09-28T14:06:57.548Z,6.18
2022-09-28T14:10:08.932Z,6.75
2022-09-28T14:12:35.632Z,5.40
2022-09-28T14:15:06.577Z,4.18
2022-09-28T14:17:44.814Z,7.15
2022-09-28T14:20:16.669Z,7.53
2022-09-28T14:23:11.093Z,8.55
2022-09-28T14:25:59.177Z,5.47
2022-09-28T14:28:31.203Z,10.77
2022-09-28T14:31:06.005Z,8.80
2022-09-28T14:33:33.664Z,8.88
2022-09-28T14:36:04.874Z,8.32
2022-09-28T14:38:54.824Z,15.73
2022-09-28T14:41:36.430Z,2.70
2022-09-28T14:44:08.812Z,7.65
2022-09-28T14:46:44.447Z,4.30
2022-09-28T14:49:17.507Z,4.85
2022-09-28T14:51:56.046Z,7.38
2022-09-28T14:54:39.187Z,20.48
2022-09-28T14:57:11.911Z,7.78
2022-09-28T14:59:43.834Z,5.75
2022-09-28T15:02:20.070Z,6.32
2022-09-28T15:04:53.931Z,5.32
2022-09-28T15:07:25.296Z,3.60
2022-09-28T15:09:54.831Z,11.57
2022-09-28T15:12:29.689Z,5.32
2022-09-28T15:15:02.324Z,11.65
2022-09-28T15:17:40.101Z,8.90
2022-09-28T15:20:10.955Z,9.82
2022-09-28T15:22:44.783Z,10.40
2022-09-28T15:25:21.165Z,7.28
2022-09-28T15:27:54.255Z,6.75
2022-09-28T15:30:28.527Z,5.20
2022-09-28T15:33:17.081Z,6.63
2022-09-28T15:35:57.302Z,6.85
2022-09-28T15:38:24.470Z,4.65
2022-09-28T15:40:51.637Z,3.00
2022-09-28T15:43:27.125Z,4.38
2022-09-28T15:46:04.206Z,5.32
2022-09-28T15:48:53.355Z,4.38
2022-09-28T15:51:22.054Z,5.28
2022-09-28T15:54:19.528Z,5.72
2022-09-28T15:56:52.889Z,4.43
2022-09-28T15:59:33.061Z,3.92
2022-09-28T16:02:16.610Z,6.72
2022-09-28T16:04:51.643Z,4.97
2022-09-28T16:07:29.970Z,5.53
2022-09-28T16:10:06.124Z,6.72
2022-09-28T16:12:40.909Z,6.10
2022-09-28T16:15:18.282Z,4.88
2022-09-28T16:18:02.908Z,7.00
2022-09-28T16:20:32.514Z,5.38
2022-09-28T16:23:21.950Z,8.25
2022-09-28T16:26:16.715Z,6.70
2022-09-28T16:28:50.843Z,3.90
2022-09-28T16:31:21.815Z,2.58
2022-09-28T16:34:09.566Z,4.25
2022-09-28T16:36:45.566Z,4.47
2022-09-28T16:39:17.392Z,5.82
2022-09-28T16:41:48.404Z,5.35
2022-09-28T16:44:28.618Z,3.25
2022-09-28T16:46:58.428Z,4.78
2022-09-28T16:49:26.277Z,4.40
2022-09-28T16:51:53.588Z,4.90
2022-09-28T16:54:41.625Z,5.40
2022-09-28T16:57:11.358Z,4.47
2022-09-28T16:59:41.071Z,4.70
2022-09-28T17:05:07.304Z,9.52
2022-09-28T17:07:34.599Z,5.50
2022-09-28T17:10:01.415Z,3.53
2022-09-28T17:12:40.236Z,5.55
2022-09-28T17:15:07.543Z,4.88
2022-09-28T17:17:35.242Z,6.13
2022-09-28T17:20:07.443Z,4.68
2022-09-28T17:22:34.227Z,9.75
2022-09-28T17:25:01.649Z,3.80
2022-09-28T17:27:29.197Z,7.90
2022-09-28T17:29:56.868Z,5.57
2022-09-28T17:32:23.825Z,6.25
2022-09-28T17:35:00.944Z,5.63
2022-09-28T17:37:42.168Z,5.75
2022-09-28T17:40:31.391Z,8.70
2022-09-28T17:42:59.780Z,4.28
2022-09-28T17:45:31.305Z,7.65
2022-09-28T17:48:00.454Z,11.15
2022-09-28T17:50:29.923Z,4.45
2022-09-28T17:52:59.791Z,6.30
2022-09-28T17:55:33.080Z,11.80
2022-09-28T17:58:03.160Z,7.15
2022-09-28T18:00:30.397Z,6.75
2022-09-28T18:02:59.009Z,4.40
2022-09-28T18:05:28.632Z,6.82
2022-09-28T18:07:58.764Z,7.28
2022-09-28T18:10:27.463Z,4.60
2022-09-28T18:12:55.154Z,6.88
2022-09-28T18:15:22.980Z,4.25
2022-09-28T18:17:51.846Z,5.10
2022-09-28T18:20:21.217Z,4.10
2022-09-28T18:22:48.547Z,9.00
2022-09-28T18:25:15.869Z,4.72
2022-09-28T18:27:45.056Z,7.70
2022-09-28T18:30:12.425Z,6.57
2022-09-28T18:32:39.240Z,10.80
2022-09-28T18:35:10.344Z,8.35
2022-09-28T18:37:41.970Z,4.35
2022-09-28T18:40:14.289Z,4.47
2022-09-28T18:42:42.258Z,7.72
2022-09-28T18:45:14.906Z,9.93
2022-09-28T18:47:44.123Z,6.28
2022-09-28T18:50:12.836Z,4.03
2022-09-28T18:52:40.516Z,7.43
2022-09-28T18:55:07.928Z,7.40
2022-09-28T18:57:35.591Z,5.32
2022-09-28T19:00:08.266Z,7.57
2022-09-28T19:02:35.724Z,4.25
2022-09-28T19:05:03.807Z,12.05
2022-09-28T19:07:33.347Z,6.13
2022-09-28T19:10:02.751Z,6.38
2022-09-28T19:12:32.396Z,5.43
2022-09-28T19:14:59.763Z,4.95
2022-09-28T19:17:29.870Z,7.85
2022-09-28T19:19:59.237Z,5.28
2022-09-28T19:22:26.541Z,4.93
2022-09-28T19:24:55.299Z,6.05
2022-09-28T19:27:24.115Z,5.50
2022-09-28T19:29:51.452Z,7.78
2022-09-28T19:32:19.105Z,7.95
2022-09-28T19:34:46.493Z,4.95
2022-09-28T19:37:16.309Z,6.47
2022-09-28T19:39:45.623Z,7.15
2022-09-28T19:42:14.971Z,7.03
2022-09-28T19:44:42.497Z,12.90
2022-09-28T19:47:11.673Z,3.88
2022-09-28T19:49:42.082Z,5.18
2022-09-28T19:52:16.578Z,6.70
2022-09-28T19:54:45.912Z,5.05
2022-09-28T19:57:15.855Z,5.13
2022-09-28T19:59:44.570Z,8.77
2022-09-28T20:02:14.138Z,9.70
2022-09-28T20:04:41.433Z,6.20
2022-09-28T20:07:08.492Z,7.93
2022-09-28T20:09:35.875Z,7.38
2022-09-28T20:12:02.672Z,5.82
2022-09-28T20:14:33.125Z,6.13
2022-09-28T20:17:05.503Z,4.78
2022-09-28T20:19:33.645Z,5.53
2022-09-28T20:22:02.839Z,5.63
2022-09-28T20:24:31.211Z,8.18
2022-09-28T20:27:00.950Z,6.20
2022-09-28T20:29:31.578Z,6.55
2022-09-28T20:32:00.967Z,4.65
2022-09-28T20:34:29.085Z,5.13
2022-09-28T20:36:56.539Z,6.05
2022-09-28T20:39:24.501Z,11.23
2022-09-28T20:41:54.064Z,5.05
2022-09-28T20:44:22.413Z,6.25
2022-09-28T20:46:53.765Z,6.20
2022-09-28T20:49:21.783Z,6.60
2022-09-28T20:51:50.076Z,5.80
2022-09-28T20:54:17.522Z,4.38
2022-09-28T20:56:44.384Z,5.88
2022-09-28T20:59:12.523Z,8.10
2022-09-28T21:01:43.315Z,5.70
2022-09-28T21:04:11.362Z,5.35
2022-09-28T21:06:41.010Z,6.85
2022-09-28T21:09:10.295Z,5.80
2022-09-28T21:11:38.836Z,6.43
2022-09-28T21:14:10.234Z,6.20
2022-09-28T21:16:39.478Z,6.05
2022-09-28T21:19:08.294Z,5.30
2022-09-28T21:21:37.251Z,4.82
2022-09-28T21:24:04.753Z,3.88
2022-09-28T21:26:34.536Z,5.57
2022-09-28T21:29:07.675Z,5.13
2022-09-28T21:31:47.802Z,4.43
2022-09-28T21:34:20.172Z,5.22
2022-09-28T21:36:48.885Z,8.52
2022-09-28T21:39:16.434Z,4.68
2022-09-28T21:41:43.435Z,8.13
2022-09-28T21:44:10.928Z,5.25
2022-09-28T21:46:40.785Z,9.00
2022-09-28T21:49:08.909Z,7.45
2022-09-28T21:51:38.004Z,10.55
2022-09-28T21:54:05.710Z,4.88
2022-09-28T21:56:34.463Z,3.65
2022-09-28T21:59:01.574Z,8.63
2022-09-28T22:01:29.456Z,6.00
2022-09-28T22:03:57.007Z,7.25
2022-09-28T22:06:28.005Z,11.35
2022-09-28T22:08:55.137Z,6.97
2022-09-28T22:11:24.221Z,5.95
2022-09-28T22:13:54.175Z,6.18
2022-09-28T22:16:23.014Z,6.45
2022-09-28T22:18:50.543Z,6.20
2022-09-28T22:21:37.637Z,4.13
2022-09-28T22:24:07.128Z,5.25
2022-09-28T22:26:36.643Z,9.93
2022-09-28T22:29:06.230Z,5.72
2022-09-28T22:31:35.826Z,8.00
2022-09-28T22:34:03.202Z,6.30
2022-09-28T22:36:30.405Z,4.85
2022-09-28T22:38:58.206Z,7.07
2022-09-28T22:41:25.245Z,9.35
2022-09-28T22:43:53.723Z,5.18
2022-09-28T22:46:26.360Z,6.28
2022-09-28T22:48:55.502Z,6.05
2022-09-28T22:51:23.756Z,6.78
2022-09-28T22:53:50.562Z,5.03
2022-09-28T22:56:19.177Z,7.03
2022-09-28T22:58:46.818Z,4.68
2022-09-28T23:01:19.705Z,10.55
2022-09-28T23:03:46.988Z,5.45
2022-09-28T23:06:18.491Z,7.78
2022-09-28T23:08:47.292Z,7.07
2022-09-28T23:11:15.233Z,11.30
2022-09-28T23:13:42.265Z,7.43
2022-09-28T23:16:12.265Z,3.95
2022-09-28T23:18:42.498Z,11.25
2022-09-28T23:21:15.246Z,8.45
2022-09-28T23:23:43.737Z,6.43
2022-09-28T23:26:16.246Z,4.78
2022-09-28T23:28:43.799Z,5.28
2022-09-28T23:31:13.689Z,10.00
2022-09-28T23:33:40.654Z,16.10
2022-09-28T23:36:07.966Z,9.52
2022-09-28T23:38:35.090Z,6.38
2022-09-28T23:41:01.991Z,7.32
2022-09-28T23:43:28.924Z,5.82
2022-09-28T23:45:55.662Z,6.47
2022-09-28T23:48:22.563Z,6.63
2022-09-28T23:50:49.371Z,7.15
2022-09-28T23:53:16.110Z,10.93
2022-09-28T23:55:43.478Z,5.90
2022-09-28T23:58:11.767Z,5.55
